Terminal Aerodrome Forecast
Issued by NWS

Home | Current Version | Previous Version | Text Only | Print | Product List | Glossary On
Versions: 1 2 3 4 5 6 7 8 9 10 11 12 13 14 15 16 17 18 19 20 21 22
000
FTUS43 KFGF 051355 AAA
TAFDVL
TAF AMD
KDVL 051355Z 0514/0612 02010KT P6SM -TSRA BKN025CB
      TEMPO 0514/0516 VRB40KT 2SM TSRA BKN009CB
     FM051700 02012KT P6SM BKN040
      AMD LTD TO CLD VIS AND WIND=

USA.gov is the U.S. government's official web portal to all federal, state and local government web resources and services.